sensor_id;sensor_type;location;lat;lon;timestamp;P1;durP1;ratioP1;P2;durP2;ratioP2
23543;SDS011;11950;51.230;4.012;2023-09-18T00:00:48;9.65;;;6.93;;
23543;SDS011;11950;51.230;4.012;2023-09-18T00:03:19;8.05;;;7.25;;
23543;SDS011;11950;51.230;4.012;2023-09-18T00:05:46;7.97;;;6.20;;
23543;SDS011;11950;51.230;4.012;2023-09-18T00:08:15;8.75;;;6.82;;
23543;SDS011;11950;51.230;4.012;2023-09-18T00:10:46;8.43;;;7.00;;
23543;SDS011;11950;51.230;4.012;2023-09-18T00:13:16;7.32;;;5.88;;
23543;SDS011;11950;51.230;4.012;2023-09-18T00:15:42;8.60;;;5.85;;
23543;SDS011;11950;51.230;4.012;2023-09-18T00:18:15;7.22;;;6.15;;
23543;SDS011;11950;51.230;4.012;2023-09-18T00:20:42;7.55;;;5.45;;
23543;SDS011;11950;51.230;4.012;2023-09-18T00:23:09;7.63;;;5.93;;
23543;SDS011;11950;51.230;4.012;2023-09-18T00:25:36;10.15;;;6.00;;
23543;SDS011;11950;51.230;4.012;2023-09-18T00:28:02;7.55;;;5.97;;
23543;SDS011;11950;51.230;4.012;2023-09-18T00:30:30;9.05;;;6.20;;
23543;SDS011;11950;51.230;4.012;2023-09-18T00:32:56;11.00;;;6.15;;
23543;SDS011;11950;51.230;4.012;2023-09-18T00:35:22;6.90;;;6.20;;
23543;SDS011;11950;51.230;4.012;2023-09-18T00:37:49;10.63;;;7.28;;
23543;SDS011;11950;51.230;4.012;2023-09-18T00:40:15;7.40;;;6.53;;
23543;SDS011;11950;51.230;4.012;2023-09-18T00:42:42;7.65;;;6.20;;
23543;SDS011;11950;51.230;4.012;2023-09-18T00:45:09;7.50;;;6.43;;
23543;SDS011;11950;51.230;4.012;2023-09-18T00:47:35;7.65;;;6.60;;
23543;SDS011;11950;51.230;4.012;2023-09-18T00:50:02;10.13;;;7.20;;
23543;SDS011;11950;51.230;4.012;2023-09-18T00:52:32;13.00;;;7.18;;
23543;SDS011;11950;51.230;4.012;2023-09-18T00:54:59;7.20;;;6.50;;
23543;SDS011;11950;51.230;4.012;2023-09-18T00:57:26;8.43;;;6.82;;
23543;SDS011;11950;51.230;4.012;2023-09-18T00:59:53;9.23;;;6.75;;
23543;SDS011;11950;51.230;4.012;2023-09-18T01:02:20;8.25;;;6.95;;
23543;SDS011;11950;51.230;4.012;2023-09-18T01:04:47;7.95;;;6.47;;
23543;SDS011;11950;51.230;4.012;2023-09-18T01:07:15;9.65;;;6.53;;
23543;SDS011;11950;51.230;4.012;2023-09-18T01:09:41;8.20;;;6.57;;
23543;SDS011;11950;51.230;4.012;2023-09-18T01:12:30;10.02;;;6.10;;
23543;SDS011;11950;51.230;4.012;2023-09-18T01:15:18;8.23;;;6.32;;
23543;SDS011;11950;51.230;4.012;2023-09-18T01:18:04;9.75;;;6.32;;
23543;SDS011;11950;51.230;4.012;2023-09-18T01:20:30;6.93;;;5.45;;
23543;SDS011;11950;51.230;4.012;2023-09-18T01:22:56;8.13;;;6.13;;
23543;SDS011;11950;51.230;4.012;2023-09-18T01:25:23;7.90;;;6.20;;
23543;SDS011;11950;51.230;4.012;2023-09-18T01:27:49;8.60;;;6.30;;
23543;SDS011;11950;51.230;4.012;2023-09-18T01:30:17;7.10;;;5.88;;
23543;SDS011;11950;51.230;4.012;2023-09-18T01:32:44;9.35;;;6.30;;
23543;SDS011;11950;51.230;4.012;2023-09-18T01:35:11;10.30;;;5.70;;
23543;SDS011;11950;51.230;4.012;2023-09-18T01:37:39;6.07;;;5.57;;
23543;SDS011;11950;51.230;4.012;2023-09-18T01:40:06;7.03;;;5.28;;
23543;SDS011;11950;51.230;4.012;2023-09-18T01:42:35;7.90;;;6.20;;
23543;SDS011;11950;51.230;4.012;2023-09-18T01:45:02;11.35;;;6.45;;
23543;SDS011;11950;51.230;4.012;2023-09-18T01:47:30;9.48;;;6.38;;
23543;SDS011;11950;51.230;4.012;2023-09-18T01:49:57;9.23;;;6.28;;
23543;SDS011;11950;51.230;4.012;2023-09-18T01:52:23;10.23;;;6.38;;
23543;SDS011;11950;51.230;4.012;2023-09-18T01:54:50;8.40;;;5.40;;
23543;SDS011;11950;51.230;4.012;2023-09-18T01:57:16;8.73;;;6.30;;
23543;SDS011;11950;51.230;4.012;2023-09-18T01:59:42;7.22;;;6.15;;
23543;SDS011;11950;51.230;4.012;2023-09-18T02:02:10;6.22;;;5.55;;
23543;SDS011;11950;51.230;4.012;2023-09-18T02:04:37;7.95;;;6.72;;
23543;SDS011;11950;51.230;4.012;2023-09-18T02:07:05;6.72;;;6.03;;
23543;SDS011;11950;51.230;4.012;2023-09-18T02:09:31;7.55;;;5.72;;
23543;SDS011;11950;51.230;4.012;2023-09-18T02:11:58;7.60;;;5.68;;
23543;SDS011;11950;51.230;4.012;2023-09-18T02:14:25;6.75;;;5.93;;
23543;SDS011;11950;51.230;4.012;2023-09-18T02:16:52;6.45;;;5.85;;
23543;SDS011;11950;51.230;4.012;2023-09-18T02:19:19;7.28;;;5.97;;
23543;SDS011;11950;51.230;4.012;2023-09-18T02:21:46;8.63;;;5.82;;
23543;SDS011;11950;51.230;4.012;2023-09-18T02:24:12;7.82;;;5.55;;
23543;SDS011;11950;51.230;4.012;2023-09-18T02:26:38;8.38;;;5.63;;
23543;SDS011;11950;51.230;4.012;2023-09-18T02:29:06;7.82;;;6.43;;
23543;SDS011;11950;51.230;4.012;2023-09-18T02:31:35;9.00;;;7.10;;
23543;SDS011;11950;51.230;4.012;2023-09-18T02:34:01;9.25;;;6.60;;
23543;SDS011;11950;51.230;4.012;2023-09-18T02:36:27;7.60;;;6.07;;
23543;SDS011;11950;51.230;4.012;2023-09-18T02:38:53;10.10;;;6.85;;
23543;SDS011;11950;51.230;4.012;2023-09-18T02:41:20;8.18;;;6.43;;
23543;SDS011;11950;51.230;4.012;2023-09-18T02:43:47;8.40;;;6.35;;
23543;SDS011;11950;51.230;4.012;2023-09-18T02:46:13;10.30;;;6.80;;
23543;SDS011;11950;51.230;4.012;2023-09-18T02:48:39;9.93;;;6.82;;
23543;SDS011;11950;51.230;4.012;2023-09-18T02:51:05;8.13;;;6.43;;
23543;SDS011;11950;51.230;4.012;2023-09-18T02:53:32;10.32;;;6.60;;
23543;SDS011;11950;51.230;4.012;2023-09-18T02:55:59;7.30;;;6.05;;
23543;SDS011;11950;51.230;4.012;2023-09-18T02:58:26;9.25;;;6.18;;
23543;SDS011;11950;51.230;4.012;2023-09-18T03:00:55;6.90;;;6.13;;
23543;SDS011;11950;51.230;4.012;2023-09-18T03:03:25;7.95;;;5.57;;
23543;SDS011;11950;51.230;4.012;2023-09-18T03:05:52;6.75;;;5.38;;
23543;SDS011;11950;51.230;4.012;2023-09-18T03:08:18;7.75;;;5.95;;
23543;SDS011;11950;51.230;4.012;2023-09-18T03:10:45;10.20;;;4.95;;
23543;SDS011;11950;51.230;4.012;2023-09-18T03:13:13;7.78;;;5.00;;
23543;SDS011;11950;51.230;4.012;2023-09-18T03:15:40;9.65;;;4.75;;
23543;SDS011;11950;51.230;4.012;2023-09-18T03:18:11;6.25;;;4.50;;
23543;SDS011;11950;51.230;4.012;2023-09-18T03:20:39;8.77;;;5.05;;
23543;SDS011;11950;51.230;4.012;2023-09-18T03:23:05;6.30;;;4.85;;
23543;SDS011;11950;51.230;4.012;2023-09-18T03:25:31;9.45;;;5.45;;
23543;SDS011;11950;51.230;4.012;2023-09-18T03:27:59;7.32;;;5.65;;
23543;SDS011;11950;51.230;4.012;2023-09-18T03:30:29;8.65;;;5.15;;
23543;SDS011;11950;51.230;4.012;2023-09-18T03:32:56;7.20;;;5.43;;
23543;SDS011;11950;51.230;4.012;2023-09-18T03:35:24;7.00;;;5.13;;
23543;SDS011;11950;51.230;4.012;2023-09-18T03:37:51;9.43;;;5.55;;
23543;SDS011;11950;51.230;4.012;2023-09-18T03:40:20;10.52;;;5.47;;
23543;SDS011;11950;51.230;4.012;2023-09-18T03:42:47;10.48;;;5.07;;
23543;SDS011;11950;51.230;4.012;2023-09-18T03:45:15;6.97;;;5.50;;
23543;SDS011;11950;51.230;4.012;2023-09-18T03:47:44;7.40;;;5.13;;
23543;SDS011;11950;51.230;4.012;2023-09-18T03:50:10;8.48;;;5.07;;
23543;SDS011;11950;51.230;4.012;2023-09-18T03:52:38;9.57;;;5.10;;
23543;SDS011;11950;51.230;4.012;2023-09-18T03:55:06;7.32;;;4.45;;
23543;SDS011;11950;51.230;4.012;2023-09-18T03:57:33;7.53;;;4.50;;
23543;SDS011;11950;51.230;4.012;2023-09-18T04:00:00;6.47;;;4.68;;
23543;SDS011;11950;51.230;4.012;2023-09-18T04:02:26;7.32;;;4.95;;
23543;SDS011;11950;51.230;4.012;2023-09-18T04:04:53;6.03;;;4.43;;
23543;SDS011;11950;51.230;4.012;2023-09-18T04:07:20;10.13;;;4.78;;
23543;SDS011;11950;51.230;4.012;2023-09-18T04:09:46;5.60;;;4.60;;
23543;SDS011;11950;51.230;4.012;2023-09-18T04:12:12;7.32;;;4.10;;
23543;SDS011;11950;51.230;4.012;2023-09-18T04:14:39;8.57;;;4.18;;
23543;SDS011;11950;51.230;4.012;2023-09-18T04:17:06;6.80;;;3.90;;
23543;SDS011;11950;51.230;4.012;2023-09-18T04:19:32;4.32;;;3.83;;
23543;SDS011;11950;51.230;4.012;2023-09-18T04:21:58;6.88;;;4.28;;
23543;SDS011;11950;51.230;4.012;2023-09-18T04:24:25;4.40;;;3.50;;
23543;SDS011;11950;51.230;4.012;2023-09-18T04:26:52;7.43;;;3.60;;
23543;SDS011;11950;51.230;4.012;2023-09-18T04:29:18;6.13;;;3.35;;
23543;SDS011;11950;51.230;4.012;2023-09-18T04:31:45;7.25;;;4.18;;
23543;SDS011;11950;51.230;4.012;2023-09-18T04:34:13;6.30;;;3.30;;
23543;SDS011;11950;51.230;4.012;2023-09-18T04:36:40;4.35;;;3.72;;
23543;SDS011;11950;51.230;4.012;2023-09-18T04:39:07;5.25;;;3.65;;
23543;SDS011;11950;51.230;4.012;2023-09-18T04:41:35;6.03;;;3.58;;
23543;SDS011;11950;51.230;4.012;2023-09-18T04:44:04;6.78;;;3.50;;
23543;SDS011;11950;51.230;4.012;2023-09-18T04:46:32;7.25;;;3.60;;
23543;SDS011;11950;51.230;4.012;2023-09-18T04:49:02;6.72;;;3.63;;
23543;SDS011;11950;51.230;4.012;2023-09-18T04:51:31;4.32;;;3.72;;
23543;SDS011;11950;51.230;4.012;2023-09-18T04:53:58;6.43;;;3.47;;
23543;SDS011;11950;51.230;4.012;2023-09-18T04:56:26;7.88;;;3.47;;
23543;SDS011;11950;51.230;4.012;2023-09-18T04:58:53;7.88;;;3.40;;
23543;SDS011;11950;51.230;4.012;2023-09-18T05:01:20;8.82;;;3.50;;
23543;SDS011;11950;51.230;4.012;2023-09-18T05:03:48;5.55;;;3.75;;
23543;SDS011;11950;51.230;4.012;2023-09-18T05:06:14;4.93;;;3.08;;
23543;SDS011;11950;51.230;4.012;2023-09-18T05:08:43;3.97;;;2.83;;
23543;SDS011;11950;51.230;4.012;2023-09-18T05:11:09;3.38;;;3.08;;
23543;SDS011;11950;51.230;4.012;2023-09-18T05:13:36;5.57;;;3.63;;
23543;SDS011;11950;51.230;4.012;2023-09-18T05:16:02;6.05;;;3.47;;
23543;SDS011;11950;51.230;4.012;2023-09-18T05:18:29;4.03;;;3.15;;
23543;SDS011;11950;51.230;4.012;2023-09-18T05:20:55;5.13;;;3.30;;
23543;SDS011;11950;51.230;4.012;2023-09-18T05:23:22;4.50;;;3.40;;
23543;SDS011;11950;51.230;4.012;2023-09-18T05:25:48;7.22;;;3.70;;
23543;SDS011;11950;51.230;4.012;2023-09-18T05:28:15;7.22;;;3.22;;
23543;SDS011;11950;51.230;4.012;2023-09-18T05:30:41;5.28;;;3.35;;
23543;SDS011;11950;51.230;4.012;2023-09-18T05:33:07;7.90;;;3.72;;
23543;SDS011;11950;51.230;4.012;2023-09-18T05:35:35;3.83;;;3.40;;
23543;SDS011;11950;51.230;4.012;2023-09-18T05:38:09;4.57;;;3.25;;
23543;SDS011;11950;51.230;4.012;2023-09-18T05:40:43;4.78;;;3.45;;
23543;SDS011;11950;51.230;4.012;2023-09-18T05:43:10;5.15;;;3.15;;
23543;SDS011;11950;51.230;4.012;2023-09-18T05:45:37;3.75;;;2.70;;
23543;SDS011;11950;51.230;4.012;2023-09-18T05:48:04;3.42;;;2.33;;
23543;SDS011;11950;51.230;4.012;2023-09-18T05:50:31;4.07;;;2.55;;
23543;SDS011;11950;51.230;4.012;2023-09-18T05:52:58;2.95;;;2.53;;
23543;SDS011;11950;51.230;4.012;2023-09-18T05:55:26;4.13;;;2.15;;
23543;SDS011;11950;51.230;4.012;2023-09-18T05:57:53;4.43;;;2.33;;
23543;SDS011;11950;51.230;4.012;2023-09-18T06:00:20;3.45;;;2.20;;
23543;SDS011;11950;51.230;4.012;2023-09-18T06:02:47;4.28;;;2.28;;
23543;SDS011;11950;51.230;4.012;2023-09-18T06:05:14;2.55;;;2.10;;
23543;SDS011;11950;51.230;4.012;2023-09-18T06:07:41;4.22;;;1.77;;
23543;SDS011;11950;51.230;4.012;2023-09-18T06:10:09;2.88;;;1.63;;
23543;SDS011;11950;51.230;4.012;2023-09-18T06:12:37;3.55;;;2.25;;
23543;SDS011;11950;51.230;4.012;2023-09-18T06:15:08;3.25;;;1.50;;
23543;SDS011;11950;51.230;4.012;2023-09-18T06:17:41;4.13;;;1.65;;
23543;SDS011;11950;51.230;4.012;2023-09-18T06:22:36;2.83;;;1.35;;
23543;SDS011;11950;51.230;4.012;2023-09-18T06:25:07;2.67;;;1.30;;
23543;SDS011;11950;51.230;4.012;2023-09-18T06:27:35;2.47;;;1.25;;
23543;SDS011;11950;51.230;4.012;2023-09-18T06:30:05;3.65;;;1.30;;
23543;SDS011;11950;51.230;4.012;2023-09-18T06:32:32;2.85;;;1.23;;
23543;SDS011;11950;51.230;4.012;2023-09-18T06:34:59;1.50;;;1.08;;
23543;SDS011;11950;51.230;4.012;2023-09-18T06:37:26;1.48;;;1.27;;
23543;SDS011;11950;51.230;4.012;2023-09-18T06:39:52;1.83;;;1.30;;
23543;SDS011;11950;51.230;4.012;2023-09-18T06:42:18;1.40;;;1.20;;
23543;SDS011;11950;51.230;4.012;2023-09-18T06:44:52;2.50;;;1.60;;
23543;SDS011;11950;51.230;4.012;2023-09-18T06:47:19;1.98;;;1.60;;
23543;SDS011;11950;51.230;4.012;2023-09-18T06:49:45;8.63;;;1.77;;
23543;SDS011;11950;51.230;4.012;2023-09-18T06:52:12;2.85;;;1.30;;
23543;SDS011;11950;51.230;4.012;2023-09-18T06:54:39;1.92;;;1.67;;
23543;SDS011;11950;51.230;4.012;2023-09-18T06:57:09;1.98;;;1.77;;
23543;SDS011;11950;51.230;4.012;2023-09-18T06:59:36;3.67;;;1.80;;
23543;SDS011;11950;51.230;4.012;2023-09-18T07:02:02;3.40;;;1.83;;
23543;SDS011;11950;51.230;4.012;2023-09-18T07:04:28;3.33;;;1.73;;
23543;SDS011;11950;51.230;4.012;2023-09-18T07:06:55;3.45;;;1.85;;
23543;SDS011;11950;51.230;4.012;2023-09-18T07:09:22;5.35;;;1.95;;
23543;SDS011;11950;51.230;4.012;2023-09-18T07:11:49;4.70;;;1.73;;
23543;SDS011;11950;51.230;4.012;2023-09-18T07:14:16;2.83;;;2.00;;
23543;SDS011;11950;51.230;4.012;2023-09-18T07:16:42;5.65;;;2.53;;
23543;SDS011;11950;51.230;4.012;2023-09-18T07:19:09;5.78;;;2.75;;
23543;SDS011;11950;51.230;4.012;2023-09-18T07:21:37;6.40;;;2.65;;
23543;SDS011;11950;51.230;4.012;2023-09-18T07:24:06;5.28;;;2.50;;
23543;SDS011;11950;51.230;4.012;2023-09-18T07:26:33;7.35;;;2.78;;
23543;SDS011;11950;51.230;4.012;2023-09-18T07:28:59;3.35;;;2.40;;
23543;SDS011;11950;51.230;4.012;2023-09-18T07:31:26;5.45;;;2.83;;
23543;SDS011;11950;51.230;4.012;2023-09-18T07:33:53;5.70;;;3.33;;
23543;SDS011;11950;51.230;4.012;2023-09-18T07:36:19;5.55;;;3.13;;
23543;SDS011;11950;51.230;4.012;2023-09-18T07:38:45;4.30;;;3.58;;
23543;SDS011;11950;51.230;4.012;2023-09-18T07:41:11;4.28;;;3.10;;
23543;SDS011;11950;51.230;4.012;2023-09-18T07:43:38;6.03;;;3.60;;
23543;SDS011;11950;51.230;4.012;2023-09-18T07:46:05;6.80;;;3.97;;
23543;SDS011;11950;51.230;4.012;2023-09-18T07:48:31;4.95;;;4.10;;
23543;SDS011;11950;51.230;4.012;2023-09-18T07:50:58;7.50;;;4.70;;
23543;SDS011;11950;51.230;4.012;2023-09-18T07:53:24;6.20;;;4.10;;
23543;SDS011;11950;51.230;4.012;2023-09-18T07:55:55;7.07;;;4.50;;
23543;SDS011;11950;51.230;4.012;2023-09-18T07:58:23;7.20;;;3.90;;
23543;SDS011;11950;51.230;4.012;2023-09-18T08:00:49;5.45;;;4.68;;
23543;SDS011;11950;51.230;4.012;2023-09-18T08:03:19;7.88;;;4.60;;
23543;SDS011;11950;51.230;4.012;2023-09-18T08:05:49;7.15;;;4.65;;
23543;SDS011;11950;51.230;4.012;2023-09-18T08:08:18;5.63;;;4.45;;
23543;SDS011;11950;51.230;4.012;2023-09-18T08:10:49;5.82;;;5.05;;
23543;SDS011;11950;51.230;4.012;2023-09-18T08:13:19;8.07;;;4.30;;
23543;SDS011;11950;51.230;4.012;2023-09-18T08:15:45;6.68;;;5.43;;
23543;SDS011;11950;51.230;4.012;2023-09-18T08:18:12;6.82;;;4.45;;
23543;SDS011;11950;51.230;4.012;2023-09-18T08:20:41;6.97;;;4.35;;
23543;SDS011;11950;51.230;4.012;2023-09-18T08:23:09;5.90;;;4.13;;
23543;SDS011;11950;51.230;4.012;2023-09-18T08:25:36;6.22;;;4.10;;
23543;SDS011;11950;51.230;4.012;2023-09-18T08:28:02;5.88;;;4.72;;
23543;SDS011;11950;51.230;4.012;2023-09-18T08:30:30;5.63;;;4.22;;
23543;SDS011;11950;51.230;4.012;2023-09-18T08:32:56;3.95;;;3.50;;
23543;SDS011;11950;51.230;4.012;2023-09-18T08:35:22;4.95;;;4.05;;
23543;SDS011;11950;51.230;4.012;2023-09-18T08:37:50;4.50;;;3.35;;
23543;SDS011;11950;51.230;4.012;2023-09-18T08:40:17;3.38;;;2.80;;
23543;SDS011;11950;51.230;4.012;2023-09-18T08:42:44;6.55;;;3.35;;
23543;SDS011;11950;51.230;4.012;2023-09-18T08:45:14;3.10;;;2.42;;
23543;SDS011;11950;51.230;4.012;2023-09-18T08:48:01;2.80;;;2.45;;
23543;SDS011;11950;51.230;4.012;2023-09-18T08:50:28;5.03;;;2.60;;
23543;SDS011;11950;51.230;4.012;2023-09-18T08:52:55;4.88;;;2.35;;
23543;SDS011;11950;51.230;4.012;2023-09-18T08:55:24;3.67;;;2.72;;
23543;SDS011;11950;51.230;4.012;2023-09-18T08:57:52;5.18;;;2.70;;
23543;SDS011;11950;51.230;4.012;2023-09-18T09:00:21;3.22;;;2.60;;
23543;SDS011;11950;51.230;4.012;2023-09-18T09:02:47;4.60;;;2.58;;
23543;SDS011;11950;51.230;4.012;2023-09-18T09:05:17;5.57;;;3.40;;
23543;SDS011;11950;51.230;4.012;2023-09-18T09:07:43;5.40;;;3.13;;
23543;SDS011;11950;51.230;4.012;2023-09-18T09:10:09;4.15;;;2.63;;
23543;SDS011;11950;51.230;4.012;2023-09-18T09:12:52;4.15;;;2.72;;
23543;SDS011;11950;51.230;4.012;2023-09-18T09:15:23;3.33;;;3.00;;
23543;SDS011;11950;51.230;4.012;2023-09-18T09:17:52;4.93;;;3.00;;
23543;SDS011;11950;51.230;4.012;2023-09-18T09:20:28;4.65;;;2.97;;
23543;SDS011;11950;51.230;4.012;2023-09-18T09:22:55;5.00;;;3.05;;
23543;SDS011;11950;51.230;4.012;2023-09-18T09:25:30;4.30;;;2.85;;
23543;SDS011;11950;51.230;4.012;2023-09-18T09:27:57;5.65;;;2.53;;
23543;SDS011;11950;51.230;4.012;2023-09-18T09:30:34;3.53;;;2.53;;
23543;SDS011;11950;51.230;4.012;2023-09-18T09:33:02;3.30;;;2.60;;
23543;SDS011;11950;51.230;4.012;2023-09-18T09:35:31;6.95;;;2.70;;
23543;SDS011;11950;51.230;4.012;2023-09-18T09:40:42;4.20;;;2.13;;
23543;SDS011;11950;51.230;4.012;2023-09-18T09:43:13;2.83;;;2.63;;
23543;SDS011;11950;51.230;4.012;2023-09-18T09:45:44;3.55;;;2.63;;
23543;SDS011;11950;51.230;4.012;2023-09-18T09:48:15;4.63;;;2.75;;
23543;SDS011;11950;51.230;4.012;2023-09-18T09:50:45;4.00;;;2.65;;
23543;SDS011;11950;51.230;4.012;2023-09-18T09:53:14;6.88;;;3.00;;
23543;SDS011;11950;51.230;4.012;2023-09-18T09:55:41;2.65;;;2.38;;
23543;SDS011;11950;51.230;4.012;2023-09-18T09:58:08;4.18;;;2.55;;
23543;SDS011;11950;51.230;4.012;2023-09-18T10:03:11;3.30;;;2.33;;
23543;SDS011;11950;51.230;4.012;2023-09-18T10:05:42;2.72;;;2.13;;
23543;SDS011;11950;51.230;4.012;2023-09-18T10:08:11;4.32;;;2.63;;
23543;SDS011;11950;51.230;4.012;2023-09-18T10:10:43;6.55;;;2.60;;
23543;SDS011;11950;51.230;4.012;2023-09-18T10:13:17;4.03;;;2.42;;
23543;SDS011;11950;51.230;4.012;2023-09-18T10:21:22;5.85;;;2.72;;
23543;SDS011;11950;51.230;4.012;2023-09-18T10:24:05;6.68;;;3.22;;
23543;SDS011;11950;51.230;4.012;2023-09-18T10:26:35;5.45;;;3.10;;
23543;SDS011;11950;51.230;4.012;2023-09-18T10:29:31;4.35;;;3.15;;
23543;SDS011;11950;51.230;4.012;2023-09-18T10:32:01;4.88;;;3.28;;
23543;SDS011;11950;51.230;4.012;2023-09-18T10:34:33;4.60;;;3.33;;
23543;SDS011;11950;51.230;4.012;2023-09-18T10:37:01;3.67;;;2.83;;
23543;SDS011;11950;51.230;4.012;2023-09-18T10:39:49;4.15;;;3.25;;
23543;SDS011;11950;51.230;4.012;2023-09-18T10:42:17;4.03;;;3.63;;
23543;SDS011;11950;51.230;4.012;2023-09-18T10:44:46;4.55;;;3.67;;
23543;SDS011;11950;51.230;4.012;2023-09-18T10:47:13;5.10;;;3.80;;
23543;SDS011;11950;51.230;4.012;2023-09-18T10:49:42;3.97;;;3.58;;
23543;SDS011;11950;51.230;4.012;2023-09-18T10:52:12;6.50;;;3.30;;
23543;SDS011;11950;51.230;4.012;2023-09-18T10:54:40;4.25;;;2.92;;
23543;SDS011;11950;51.230;4.012;2023-09-18T10:57:06;4.43;;;2.80;;
23543;SDS011;11950;51.230;4.012;2023-09-18T10:59:32;3.15;;;2.90;;
23543;SDS011;11950;51.230;4.012;2023-09-18T11:02:02;3.05;;;2.83;;
23543;SDS011;11950;51.230;4.012;2023-09-18T11:04:32;5.88;;;2.95;;
23543;SDS011;11950;51.230;4.012;2023-09-18T11:09:29;3.45;;;2.72;;
23543;SDS011;11950;51.230;4.012;2023-09-18T11:17:32;3.45;;;2.42;;
23543;SDS011;11950;51.230;4.012;2023-09-18T11:28:07;2.60;;;2.40;;
23543;SDS011;11950;51.230;4.012;2023-09-18T11:30:38;2.40;;;2.20;;
23543;SDS011;11950;51.230;4.012;2023-09-18T11:33:29;3.60;;;2.42;;
23543;SDS011;11950;51.230;4.012;2023-09-18T11:36:08;4.13;;;2.55;;
23543;SDS011;11950;51.230;4.012;2023-09-18T11:41:29;3.05;;;1.80;;
23543;SDS011;11950;51.230;4.012;2023-09-18T11:44:44;3.97;;;1.80;;
23543;SDS011;11950;51.230;4.012;2023-09-18T11:46:54;4.10;;;1.77;;
23543;SDS011;11950;51.230;4.012;2023-09-18T11:49:22;3.65;;;1.90;;
23543;SDS011;11950;51.230;4.012;2023-09-18T11:51:52;4.90;;;1.92;;
23543;SDS011;11950;51.230;4.012;2023-09-18T11:54:22;4.00;;;1.55;;
23543;SDS011;11950;51.230;4.012;2023-09-18T11:56:48;1.58;;;1.40;;
23543;SDS011;11950;51.230;4.012;2023-09-18T11:59:15;1.63;;;1.50;;
23543;SDS011;11950;51.230;4.012;2023-09-18T12:01:52;1.60;;;1.50;;
23543;SDS011;11950;51.230;4.012;2023-09-18T12:04:27;4.70;;;1.60;;
23543;SDS011;11950;51.230;4.012;2023-09-18T12:06:55;3.17;;;1.40;;
23543;SDS011;11950;51.230;4.012;2023-09-18T12:09:21;2.65;;;1.60;;
23543;SDS011;11950;51.230;4.012;2023-09-18T12:11:47;5.13;;;1.60;;
23543;SDS011;11950;51.230;4.012;2023-09-18T12:14:18;5.18;;;1.30;;
23543;SDS011;11950;51.230;4.012;2023-09-18T12:16:46;1.98;;;1.42;;
23543;SDS011;11950;51.230;4.012;2023-09-18T12:19:16;4.45;;;1.77;;
23543;SDS011;11950;51.230;4.012;2023-09-18T12:21:45;1.40;;;1.30;;
23543;SDS011;11950;51.230;4.012;2023-09-18T12:29:12;1.77;;;1.48;;
23543;SDS011;11950;51.230;4.012;2023-09-18T12:31:39;3.03;;;1.40;;
23543;SDS011;11950;51.230;4.012;2023-09-18T12:34:05;1.95;;;1.30;;
23543;SDS011;11950;51.230;4.012;2023-09-18T12:36:43;3.40;;;1.77;;
23543;SDS011;11950;51.230;4.012;2023-09-18T12:39:09;2.53;;;1.70;;
23543;SDS011;11950;51.230;4.012;2023-09-18T12:41:36;1.85;;;1.60;;
23543;SDS011;11950;51.230;4.012;2023-09-18T12:44:04;1.92;;;1.52;;
23543;SDS011;11950;51.230;4.012;2023-09-18T12:46:32;4.10;;;1.90;;
23543;SDS011;11950;51.230;4.012;2023-09-18T12:48:59;2.00;;;1.80;;
23543;SDS011;11950;51.230;4.012;2023-09-18T12:51:41;2.47;;;1.60;;
23543;SDS011;11950;51.230;4.012;2023-09-18T12:54:07;5.65;;;1.58;;
23543;SDS011;11950;51.230;4.012;2023-09-18T12:56:39;1.42;;;1.33;;
23543;SDS011;11950;51.230;4.012;2023-09-18T12:59:07;1.70;;;1.60;;
23543;SDS011;11950;51.230;4.012;2023-09-18T13:01:33;3.28;;;1.98;;
23543;SDS011;11950;51.230;4.012;2023-09-18T13:03:59;1.55;;;1.27;;
23543;SDS011;11950;51.230;4.012;2023-09-18T13:06:31;1.77;;;1.15;;
23543;SDS011;11950;51.230;4.012;2023-09-18T13:09:18;1.88;;;1.10;;
23543;SDS011;11950;51.230;4.012;2023-09-18T13:11:51;1.52;;;1.15;;
23543;SDS011;11950;51.230;4.012;2023-09-18T13:14:24;2.97;;;1.30;;
23543;SDS011;11950;51.230;4.012;2023-09-18T13:16:50;3.28;;;1.30;;
23543;SDS011;11950;51.230;4.012;2023-09-18T13:19:17;3.33;;;1.30;;
23543;SDS011;11950;51.230;4.012;2023-09-18T13:21:48;2.70;;;1.52;;
23543;SDS011;11950;51.230;4.012;2023-09-18T13:24:25;2.00;;;1.08;;
23543;SDS011;11950;51.230;4.012;2023-09-18T13:26:53;4.03;;;1.20;;
23543;SDS011;11950;51.230;4.012;2023-09-18T13:29:20;1.35;;;1.10;;
23543;SDS011;11950;51.230;4.012;2023-09-18T13:31:47;2.33;;;1.10;;
23543;SDS011;11950;51.230;4.012;2023-09-18T13:34:15;3.55;;;1.17;;
23543;SDS011;11950;51.230;4.012;2023-09-18T13:36:45;1.83;;;1.05;;
23543;SDS011;11950;51.230;4.012;2023-09-18T13:39:14;1.20;;;1.10;;
23543;SDS011;11950;51.230;4.012;2023-09-18T13:41:44;13.38;;;2.22;;
23543;SDS011;11950;51.230;4.012;2023-09-18T13:44:10;3.70;;;1.00;;
23543;SDS011;11950;51.230;4.012;2023-09-18T13:46:37;4.22;;;0.73;;
23543;SDS011;11950;51.230;4.012;2023-09-18T13:49:03;4.38;;;0.80;;
23543;SDS011;11950;51.230;4.012;2023-09-18T13:51:33;3.00;;;0.60;;
23543;SDS011;11950;51.230;4.012;2023-09-18T13:53:59;1.52;;;0.90;;
23543;SDS011;11950;51.230;4.012;2023-09-18T13:56:27;1.40;;;0.70;;
23543;SDS011;11950;51.230;4.012;2023-09-18T13:58:59;3.15;;;0.80;;
23543;SDS011;11950;51.230;4.012;2023-09-18T14:01:25;1.33;;;0.77;;
23543;SDS011;11950;51.230;4.012;2023-09-18T14:03:54;2.95;;;0.73;;
23543;SDS011;11950;51.230;4.012;2023-09-18T14:06:20;8.02;;;0.80;;
23543;SDS011;11950;51.230;4.012;2023-09-18T14:08:46;3.45;;;0.73;;
23543;SDS011;11950;51.230;4.012;2023-09-18T14:11:13;1.65;;;0.70;;
23543;SDS011;11950;51.230;4.012;2023-09-18T14:13:39;0.77;;;0.73;;
23543;SDS011;11950;51.230;4.012;2023-09-18T14:16:07;2.08;;;0.80;;
23543;SDS011;11950;51.230;4.012;2023-09-18T14:18:33;1.10;;;0.70;;
23543;SDS011;11950;51.230;4.012;2023-09-18T14:20:59;1.33;;;0.70;;
23543;SDS011;11950;51.230;4.012;2023-09-18T14:23:25;0.82;;;0.70;;
23543;SDS011;11950;51.230;4.012;2023-09-18T14:25:52;2.17;;;0.90;;
23543;SDS011;11950;51.230;4.012;2023-09-18T14:28:18;1.25;;;0.80;;
23543;SDS011;11950;51.230;4.012;2023-09-18T14:30:45;1.55;;;1.00;;
23543;SDS011;11950;51.230;4.012;2023-09-18T14:33:12;4.65;;;1.20;;
23543;SDS011;11950;51.230;4.012;2023-09-18T14:35:39;2.00;;;1.15;;
23543;SDS011;11950;51.230;4.012;2023-09-18T14:38:06;1.30;;;1.20;;
23543;SDS011;11950;51.230;4.012;2023-09-18T14:40:32;4.22;;;1.35;;
23543;SDS011;11950;51.230;4.012;2023-09-18T14:42:58;1.42;;;1.10;;
23543;SDS011;11950;51.230;4.012;2023-09-18T14:45:25;2.60;;;1.30;;
23543;SDS011;11950;51.230;4.012;2023-09-18T14:47:51;1.95;;;1.30;;
23543;SDS011;11950;51.230;4.012;2023-09-18T14:50:17;2.30;;;1.85;;
23543;SDS011;11950;51.230;4.012;2023-09-18T14:52:44;4.07;;;1.15;;
23543;SDS011;11950;51.230;4.012;2023-09-18T14:55:10;2.53;;;1.30;;
23543;SDS011;11950;51.230;4.012;2023-09-18T14:57:36;1.98;;;1.20;;
23543;SDS011;11950;51.230;4.012;2023-09-18T15:00:03;3.38;;;1.00;;
23543;SDS011;11950;51.230;4.012;2023-09-18T15:02:31;1.95;;;1.10;;
23543;SDS011;11950;51.230;4.012;2023-09-18T15:04:59;1.60;;;1.08;;
23543;SDS011;11950;51.230;4.012;2023-09-18T15:07:26;1.65;;;1.20;;
23543;SDS011;11950;51.230;4.012;2023-09-18T15:09:53;1.77;;;1.10;;
23543;SDS011;11950;51.230;4.012;2023-09-18T15:12:19;2.58;;;1.13;;
23543;SDS011;11950;51.230;4.012;2023-09-18T15:14:45;4.85;;;1.23;;
23543;SDS011;11950;51.230;4.012;2023-09-18T15:17:12;2.63;;;1.13;;
23543;SDS011;11950;51.230;4.012;2023-09-18T15:19:39;4.25;;;1.25;;
23543;SDS011;11950;51.230;4.012;2023-09-18T15:22:05;1.27;;;1.05;;
23543;SDS011;11950;51.230;4.012;2023-09-18T15:24:33;2.58;;;1.20;;
23543;SDS011;11950;51.230;4.012;2023-09-18T15:27:00;1.38;;;0.93;;
23543;SDS011;11950;51.230;4.012;2023-09-18T15:29:26;3.00;;;1.10;;
23543;SDS011;11950;51.230;4.012;2023-09-18T15:31:55;2.63;;;1.00;;